sensor_id;sensor_type;location;lat;lon;timestamp;pressure;altitude;pressure_sealevel;temperature;humidity
37368;BME280;23240;43.210;27.910;2022-10-31T00:01:59;101350.63;;;14.49;100.00
37368;BME280;23240;43.210;27.910;2022-10-31T00:04:24;101352.22;;;14.52;100.00
37368;BME280;23240;43.210;27.910;2022-10-31T00:06:50;101351.81;;;14.56;100.00
37368;BME280;23240;43.210;27.910;2022-10-31T00:09:15;101349.97;;;14.57;100.00
37368;BME280;23240;43.210;27.910;2022-10-31T00:11:41;101358.75;;;14.59;100.00
37368;BME280;23240;43.210;27.910;2022-10-31T00:14:06;101356.19;;;14.57;100.00
37368;BME280;23240;43.210;27.910;2022-10-31T00:16:32;101359.94;;;14.66;100.00
37368;BME280;23240;43.210;27.910;2022-10-31T00:19:00;101356.78;;;14.61;100.00
37368;BME280;23240;43.210;27.910;2022-10-31T00:21:26;101351.50;;;14.59;100.00
37368;BME280;23240;43.210;27.910;2022-10-31T00:23:52;101346.00;;;14.61;100.00
37368;BME280;23240;43.210;27.910;2022-10-31T00:26:18;101343.31;;;14.61;100.00
37368;BME280;23240;43.210;27.910;2022-10-31T00:28:43;101345.16;;;14.60;100.00
37368;BME280;23240;43.210;27.910;2022-10-31T00:31:10;101347.97;;;14.59;100.00
37368;BME280;23240;43.210;27.910;2022-10-31T00:33:38;101347.97;;;14.59;100.00
37368;BME280;23240;43.210;27.910;2022-10-31T00:36:05;101347.41;;;14.55;100.00
37368;BME280;23240;43.210;27.910;2022-10-31T00:38:31;101346.81;;;14.52;100.00
37368;BME280;23240;43.210;27.910;2022-10-31T00:40:57;101345.25;;;14.49;100.00
37368;BME280;23240;43.210;27.910;2022-10-31T00:43:23;101346.22;;;14.48;100.00
37368;BME280;23240;43.210;27.910;2022-10-31T00:45:48;101349.03;;;14.47;100.00
37368;BME280;23240;43.210;27.910;2022-10-31T00:48:14;101342.53;;;14.49;100.00
37368;BME280;23240;43.210;27.910;2022-10-31T00:50:40;101343.38;;;14.50;100.00
37368;BME280;23240;43.210;27.910;2022-10-31T00:53:05;101339.19;;;14.57;100.00
37368;BME280;23240;43.210;27.910;2022-10-31T00:55:31;101343.16;;;14.62;100.00
37368;BME280;23240;43.210;27.910;2022-10-31T00:57:57;101339.75;;;14.60;100.00
37368;BME280;23240;43.210;27.910;2022-10-31T01:00:22;101340.63;;;14.61;100.00
37368;BME280;23240;43.210;27.910;2022-10-31T01:02:48;101342.56;;;14.59;100.00
37368;BME280;23240;43.210;27.910;2022-10-31T01:05:14;101339.75;;;14.60;100.00
37368;BME280;23240;43.210;27.910;2022-10-31T01:07:40;101347.84;;;14.60;100.00
37368;BME280;23240;43.210;27.910;2022-10-31T01:10:06;101340.88;;;14.58;100.00
37368;BME280;23240;43.210;27.910;2022-10-31T01:12:44;101336.34;;;14.58;100.00
37368;BME280;23240;43.210;27.910;2022-10-31T01:15:12;101329.91;;;14.50;100.00
37368;BME280;23240;43.210;27.910;2022-10-31T01:17:38;101338.59;;;14.53;100.00
37368;BME280;23240;43.210;27.910;2022-10-31T01:20:07;101333.06;;;14.55;100.00
37368;BME280;23240;43.210;27.910;2022-10-31T01:22:33;101333.19;;;14.53;100.00
37368;BME280;23240;43.210;27.910;2022-10-31T01:24:58;101331.34;;;14.54;100.00
37368;BME280;23240;43.210;27.910;2022-10-31T01:27:24;101337.19;;;14.59;100.00
37368;BME280;23240;43.210;27.910;2022-10-31T01:29:50;101331.53;;;14.62;100.00
37368;BME280;23240;43.210;27.910;2022-10-31T01:32:15;101332.13;;;14.65;100.00
37368;BME280;23240;43.210;27.910;2022-10-31T01:34:41;101333.66;;;14.68;100.00
37368;BME280;23240;43.210;27.910;2022-10-31T01:37:06;101328.59;;;14.75;100.00
37368;BME280;23240;43.210;27.910;2022-10-31T01:39:32;101337.69;;;14.83;100.00
37368;BME280;23240;43.210;27.910;2022-10-31T01:41:57;101337.16;;;14.89;100.00
37368;BME280;23240;43.210;27.910;2022-10-31T01:46:55;101332.16;;;14.85;100.00
37368;BME280;23240;43.210;27.910;2022-10-31T01:54:50;101340.38;;;14.83;100.00
37368;BME280;23240;43.210;27.910;2022-10-31T01:57:17;101344.81;;;14.84;100.00
37368;BME280;23240;43.210;27.910;2022-10-31T01:59:48;101338.41;;;14.85;100.00
37368;BME280;23240;43.210;27.910;2022-10-31T02:02:16;101334.97;;;14.83;100.00
37368;BME280;23240;43.210;27.910;2022-10-31T02:04:44;101340.66;;;14.80;100.00
37368;BME280;23240;43.210;27.910;2022-10-31T02:07:14;101339.53;;;14.83;100.00
37368;BME280;23240;43.210;27.910;2022-10-31T02:09:43;101334.69;;;14.77;100.00
37368;BME280;23240;43.210;27.910;2022-10-31T02:12:10;101338.66;;;14.73;100.00
37368;BME280;23240;43.210;27.910;2022-10-31T02:14:37;101335.50;;;14.68;100.00
37368;BME280;23240;43.210;27.910;2022-10-31T02:17:03;101339.88;;;14.59;100.00
37368;BME280;23240;43.210;27.910;2022-10-31T02:30:23;101339.28;;;14.25;100.00
37368;BME280;23240;43.210;27.910;2022-10-31T02:33:03;101338.28;;;14.26;100.00
37368;BME280;23240;43.210;27.910;2022-10-31T02:38:53;101354.34;;;14.27;100.00
37368;BME280;23240;43.210;27.910;2022-10-31T02:41:40;101356.03;;;14.28;100.00
37368;BME280;23240;43.210;27.910;2022-10-31T02:46:55;101361.88;;;14.33;100.00
37368;BME280;23240;43.210;27.910;2022-10-31T02:52:28;101354.53;;;14.45;100.00
37368;BME280;23240;43.210;27.910;2022-10-31T02:54:54;101348.53;;;14.53;100.00
37368;BME280;23240;43.210;27.910;2022-10-31T02:57:29;101346.00;;;14.61;100.00
37368;BME280;23240;43.210;27.910;2022-10-31T03:00:14;101347.16;;;14.68;100.00
37368;BME280;23240;43.210;27.910;2022-10-31T03:08:29;101351.72;;;14.77;100.00
37368;BME280;23240;43.210;27.910;2022-10-31T03:11:03;101348.91;;;14.88;100.00
37368;BME280;23240;43.210;27.910;2022-10-31T03:13:46;101356.16;;;14.88;100.00
37368;BME280;23240;43.210;27.910;2022-10-31T03:21:26;101358.81;;;14.78;100.00
37368;BME280;23240;43.210;27.910;2022-10-31T03:23:53;101365.88;;;14.70;100.00
37368;BME280;23240;43.210;27.910;2022-10-31T03:26:21;101368.13;;;14.64;100.00
37368;BME280;23240;43.210;27.910;2022-10-31T03:28:57;101367.56;;;14.61;100.00
37368;BME280;23240;43.210;27.910;2022-10-31T03:31:33;101369.81;;;14.56;100.00
37368;BME280;23240;43.210;27.910;2022-10-31T03:34:01;101371.59;;;14.46;100.00
37368;BME280;23240;43.210;27.910;2022-10-31T03:36:30;101381.00;;;14.30;100.00
37368;BME280;23240;43.210;27.910;2022-10-31T03:38:58;101378.00;;;14.24;100.00
37368;BME280;23240;43.210;27.910;2022-10-31T03:41:29;101382.94;;;14.19;100.00
37368;BME280;23240;43.210;27.910;2022-10-31T03:44:04;101384.31;;;14.13;100.00
37368;BME280;23240;43.210;27.910;2022-10-31T03:46:31;101389.50;;;14.05;100.00
37368;BME280;23240;43.210;27.910;2022-10-31T03:48:58;101385.81;;;14.06;100.00
37368;BME280;23240;43.210;27.910;2022-10-31T03:56:53;101404.81;;;14.25;100.00
37368;BME280;23240;43.210;27.910;2022-10-31T03:59:26;101402.97;;;14.26;100.00
37368;BME280;23240;43.210;27.910;2022-10-31T04:01:56;101402.31;;;14.33;100.00
37368;BME280;23240;43.210;27.910;2022-10-31T04:04:23;101406.59;;;14.36;100.00
37368;BME280;23240;43.210;27.910;2022-10-31T04:06:50;101405.06;;;14.43;100.00
37368;BME280;23240;43.210;27.910;2022-10-31T04:09:18;101406.50;;;14.47;100.00
37368;BME280;23240;43.210;27.910;2022-10-31T04:11:50;101407.25;;;14.49;100.00
37368;BME280;23240;43.210;27.910;2022-10-31T04:14:17;101401.88;;;14.59;100.00
37368;BME280;23240;43.210;27.910;2022-10-31T04:16:43;101401.63;;;14.62;100.00
37368;BME280;23240;43.210;27.910;2022-10-31T04:19:11;101407.56;;;14.56;100.00
37368;BME280;23240;43.210;27.910;2022-10-31T04:21:37;101413.00;;;14.45;100.00
37368;BME280;23240;43.210;27.910;2022-10-31T04:24:02;101421.47;;;14.40;100.00
37368;BME280;23240;43.210;27.910;2022-10-31T04:26:28;101421.19;;;14.33;100.00
37368;BME280;23240;43.210;27.910;2022-10-31T04:28:53;101418.63;;;14.32;100.00
37368;BME280;23240;43.210;27.910;2022-10-31T04:31:19;101425.13;;;14.29;100.00
37368;BME280;23240;43.210;27.910;2022-10-31T04:33:45;101422.97;;;14.23;100.00
37368;BME280;23240;43.210;27.910;2022-10-31T04:36:10;101428.59;;;14.20;100.00
37368;BME280;23240;43.210;27.910;2022-10-31T04:38:36;101429.38;;;14.11;100.00
37368;BME280;23240;43.210;27.910;2022-10-31T04:41:01;101435.91;;;14.08;100.00
37368;BME280;23240;43.210;27.910;2022-10-31T04:43:27;101445.56;;;14.11;100.00
37368;BME280;23240;43.210;27.910;2022-10-31T04:45:53;101433.91;;;14.10;100.00
37368;BME280;23240;43.210;27.910;2022-10-31T04:48:18;101437.06;;;14.15;100.00
37368;BME280;23240;43.210;27.910;2022-10-31T04:50:43;101443.31;;;14.16;100.00
37368;BME280;23240;43.210;27.910;2022-10-31T04:53:09;101453.13;;;14.17;100.00
37368;BME280;23240;43.210;27.910;2022-10-31T04:55:35;101455.69;;;14.19;100.00
37368;BME280;23240;43.210;27.910;2022-10-31T04:58:01;101459.47;;;14.16;100.00
37368;BME280;23240;43.210;27.910;2022-10-31T05:00:27;101457.00;;;14.24;100.00
37368;BME280;23240;43.210;27.910;2022-10-31T05:02:55;101462.38;;;14.24;100.00
37368;BME280;23240;43.210;27.910;2022-10-31T05:05:27;101470.69;;;14.32;100.00
37368;BME280;23240;43.210;27.910;2022-10-31T05:07:53;101480.06;;;14.38;100.00
37368;BME280;23240;43.210;27.910;2022-10-31T05:10:21;101483.22;;;14.43;100.00
37368;BME280;23240;43.210;27.910;2022-10-31T05:12:51;101486.72;;;14.55;100.00
37368;BME280;23240;43.210;27.910;2022-10-31T05:15:17;101491.31;;;14.64;100.00
37368;BME280;23240;43.210;27.910;2022-10-31T05:17:43;101493.22;;;14.73;100.00
37368;BME280;23240;43.210;27.910;2022-10-31T05:20:10;101494.84;;;14.85;100.00
37368;BME280;23240;43.210;27.910;2022-10-31T05:22:36;101492.75;;;14.99;100.00
37368;BME280;23240;43.210;27.910;2022-10-31T05:25:02;101484.41;;;15.02;100.00
37368;BME280;23240;43.210;27.910;2022-10-31T05:27:28;101491.09;;;15.07;100.00
37368;BME280;23240;43.210;27.910;2022-10-31T05:29:53;101500.38;;;15.14;100.00
37368;BME280;23240;43.210;27.910;2022-10-31T05:32:19;101502.38;;;15.22;100.00
37368;BME280;23240;43.210;27.910;2022-10-31T05:34:44;101506.66;;;15.25;100.00
37368;BME280;23240;43.210;27.910;2022-10-31T05:37:10;101504.66;;;15.27;100.00
37368;BME280;23240;43.210;27.910;2022-10-31T05:39:36;101512.09;;;15.34;100.00
37368;BME280;23240;43.210;27.910;2022-10-31T05:42:02;101509.56;;;15.42;100.00
37368;BME280;23240;43.210;27.910;2022-10-31T05:44:28;101509.28;;;15.55;100.00
37368;BME280;23240;43.210;27.910;2022-10-31T05:46:54;101523.28;;;15.70;100.00
37368;BME280;23240;43.210;27.910;2022-10-31T05:49:19;101524.56;;;15.76;100.00
37368;BME280;23240;43.210;27.910;2022-10-31T05:51:45;101527.84;;;15.79;100.00
37368;BME280;23240;43.210;27.910;2022-10-31T05:54:11;101522.75;;;15.86;100.00
37368;BME280;23240;43.210;27.910;2022-10-31T05:56:36;101525.88;;;16.01;100.00
37368;BME280;23240;43.210;27.910;2022-10-31T05:59:01;101534.53;;;16.14;100.00
37368;BME280;23240;43.210;27.910;2022-10-31T06:01:27;101533.13;;;16.19;100.00
37368;BME280;23240;43.210;27.910;2022-10-31T06:03:52;101532.69;;;16.24;100.00
37368;BME280;23240;43.210;27.910;2022-10-31T06:06:18;101531.28;;;16.39;100.00
37368;BME280;23240;43.210;27.910;2022-10-31T06:08:43;101537.53;;;16.50;100.00
37368;BME280;23240;43.210;27.910;2022-10-31T06:11:09;101533.41;;;16.55;100.00
37368;BME280;23240;43.210;27.910;2022-10-31T06:13:34;101525.25;;;16.65;100.00
37368;BME280;23240;43.210;27.910;2022-10-31T06:16:00;101526.53;;;16.70;100.00
37368;BME280;23240;43.210;27.910;2022-10-31T06:18:25;101530.38;;;16.78;100.00
37368;BME280;23240;43.210;27.910;2022-10-31T06:20:51;101529.66;;;16.85;100.00
37368;BME280;23240;43.210;27.910;2022-10-31T06:23:16;101534.06;;;16.86;100.00
37368;BME280;23240;43.210;27.910;2022-10-31T06:25:42;101533.63;;;16.81;100.00
37368;BME280;23240;43.210;27.910;2022-10-31T06:28:07;101531.94;;;16.80;100.00
37368;BME280;23240;43.210;27.910;2022-10-31T06:30:33;101534.50;;;16.82;100.00
37368;BME280;23240;43.210;27.910;2022-10-31T06:33:02;101546.56;;;16.87;100.00
37368;BME280;23240;43.210;27.910;2022-10-31T06:35:28;101540.72;;;16.92;100.00
37368;BME280;23240;43.210;27.910;2022-10-31T06:37:54;101533.59;;;17.01;100.00
37368;BME280;23240;43.210;27.910;2022-10-31T06:40:20;101539.09;;;17.18;100.00
37368;BME280;23240;43.210;27.910;2022-10-31T06:42:45;101542.84;;;17.35;100.00
37368;BME280;23240;43.210;27.910;2022-10-31T06:45:11;101546.66;;;17.42;100.00
37368;BME280;23240;43.210;27.910;2022-10-31T06:47:36;101552.94;;;17.43;100.00
37368;BME280;23240;43.210;27.910;2022-10-31T06:50:02;101555.34;;;17.46;100.00
37368;BME280;23240;43.210;27.910;2022-10-31T06:52:28;101562.66;;;17.63;100.00
37368;BME280;23240;43.210;27.910;2022-10-31T06:54:53;101564.81;;;17.87;100.00
37368;BME280;23240;43.210;27.910;2022-10-31T06:57:19;101558.41;;;18.06;100.00
37368;BME280;23240;43.210;27.910;2022-10-31T06:59:44;101562.47;;;18.20;100.00
37368;BME280;23240;43.210;27.910;2022-10-31T07:02:10;101562.94;;;18.33;100.00
37368;BME280;23240;43.210;27.910;2022-10-31T07:04:36;101563.13;;;18.40;100.00
37368;BME280;23240;43.210;27.910;2022-10-31T07:07:02;101567.81;;;18.47;100.00
37368;BME280;23240;43.210;27.910;2022-10-31T07:09:27;101566.78;;;18.48;100.00
37368;BME280;23240;43.210;27.910;2022-10-31T07:11:53;101568.00;;;18.54;100.00
37368;BME280;23240;43.210;27.910;2022-10-31T07:14:19;101566.34;;;18.61;100.00
37368;BME280;23240;43.210;27.910;2022-10-31T07:16:49;101566.59;;;18.68;100.00
37368;BME280;23240;43.210;27.910;2022-10-31T07:19:15;101563.75;;;18.69;100.00
37368;BME280;23240;43.210;27.910;2022-10-31T07:21:41;101566.91;;;18.65;100.00
37368;BME280;23240;43.210;27.910;2022-10-31T07:24:06;101564.91;;;18.67;100.00
37368;BME280;23240;43.210;27.910;2022-10-31T07:26:32;101566.22;;;18.63;100.00
37368;BME280;23240;43.210;27.910;2022-10-31T07:28:57;101566.78;;;18.48;100.00
37368;BME280;23240;43.210;27.910;2022-10-31T07:31:24;101568.66;;;18.30;100.00
37368;BME280;23240;43.210;27.910;2022-10-31T07:33:50;101568.50;;;18.14;100.00
37368;BME280;23240;43.210;27.910;2022-10-31T07:36:16;101562.16;;;18.05;100.00
37368;BME280;23240;43.210;27.910;2022-10-31T07:38:41;101561.34;;;18.13;100.00
37368;BME280;23240;43.210;27.910;2022-10-31T07:41:07;101564.63;;;18.34;100.00
37368;BME280;23240;43.210;27.910;2022-10-31T07:43:32;101556.31;;;18.54;100.00
37368;BME280;23240;43.210;27.910;2022-10-31T07:45:58;101563.81;;;18.60;100.00
37368;BME280;23240;43.210;27.910;2022-10-31T07:48:23;101569.63;;;18.65;100.00
37368;BME280;23240;43.210;27.910;2022-10-31T07:50:49;101564.53;;;18.62;100.00
37368;BME280;23240;43.210;27.910;2022-10-31T07:53:15;101561.81;;;18.62;100.00
37368;BME280;23240;43.210;27.910;2022-10-31T07:55:41;101570.25;;;18.59;100.00
37368;BME280;23240;43.210;27.910;2022-10-31T07:58:16;101571.88;;;18.52;100.00
37368;BME280;23240;43.210;27.910;2022-10-31T08:00:44;101575.22;;;18.45;100.00
37368;BME280;23240;43.210;27.910;2022-10-31T08:03:12;101581.03;;;18.50;100.00
37368;BME280;23240;43.210;27.910;2022-10-31T08:05:38;101582.16;;;18.66;100.00
37368;BME280;23240;43.210;27.910;2022-10-31T08:08:06;101583.50;;;18.80;100.00
37368;BME280;23240;43.210;27.910;2022-10-31T08:10:33;101580.31;;;18.84;100.00
37368;BME280;23240;43.210;27.910;2022-10-31T08:13:00;101582.28;;;18.74;100.00
37368;BME280;23240;43.210;27.910;2022-10-31T08:15:26;101577.63;;;18.66;100.00
37368;BME280;23240;43.210;27.910;2022-10-31T08:17:52;101579.88;;;18.71;100.00
37368;BME280;23240;43.210;27.910;2022-10-31T08:20:18;101580.94;;;18.78;100.00
37368;BME280;23240;43.210;27.910;2022-10-31T08:22:52;101584.50;;;18.79;100.00
37368;BME280;23240;43.210;27.910;2022-10-31T08:25:18;101580.56;;;18.73;100.00
37368;BME280;23240;43.210;27.910;2022-10-31T08:27:48;101579.44;;;18.66;100.00
37368;BME280;23240;43.210;27.910;2022-10-31T08:30:14;101573.50;;;18.62;100.00
37368;BME280;23240;43.210;27.910;2022-10-31T08:32:39;101567.91;;;18.64;100.00
37368;BME280;23240;43.210;27.910;2022-10-31T08:35:05;101567.31;;;18.70;100.00
37368;BME280;23240;43.210;27.910;2022-10-31T08:37:30;101568.59;;;18.84;100.00
37368;BME280;23240;43.210;27.910;2022-10-31T08:39:56;101563.13;;;19.02;100.00
37368;BME280;23240;43.210;27.910;2022-10-31T08:42:21;101570.78;;;19.06;100.00
37368;BME280;23240;43.210;27.910;2022-10-31T08:44:47;101579.19;;;19.21;100.00
37368;BME280;23240;43.210;27.910;2022-10-31T08:47:12;101582.09;;;19.27;100.00
37368;BME280;23240;43.210;27.910;2022-10-31T08:49:38;101581.19;;;19.19;100.00
37368;BME280;23240;43.210;27.910;2022-10-31T08:52:03;101586.16;;;19.23;100.00
37368;BME280;23240;43.210;27.910;2022-10-31T08:54:29;101582.00;;;19.37;100.00
37368;BME280;23240;43.210;27.910;2022-10-31T08:57:00;101582.69;;;19.39;100.00
37368;BME280;23240;43.210;27.910;2022-10-31T08:59:25;101588.84;;;19.49;100.00
37368;BME280;23240;43.210;27.910;2022-10-31T09:01:51;101585.88;;;19.61;100.00
37368;BME280;23240;43.210;27.910;2022-10-31T09:04:16;101585.19;;;19.67;100.00
37368;BME280;23240;43.210;27.910;2022-10-31T09:06:42;101583.53;;;19.82;100.00
37368;BME280;23240;43.210;27.910;2022-10-31T09:09:07;101578.19;;;20.15;100.00
37368;BME280;23240;43.210;27.910;2022-10-31T09:11:33;101575.84;;;20.36;100.00
37368;BME280;23240;43.210;27.910;2022-10-31T09:13:58;101574.84;;;20.37;100.00
37368;BME280;23240;43.210;27.910;2022-10-31T09:16:23;101573.34;;;20.51;100.00
37368;BME280;23240;43.210;27.910;2022-10-31T09:18:49;101570.75;;;20.33;100.00
37368;BME280;23240;43.210;27.910;2022-10-31T09:21:14;101567.00;;;20.34;100.00
37368;BME280;23240;43.210;27.910;2022-10-31T09:23:40;101566.16;;;20.42;100.00
37368;BME280;23240;43.210;27.910;2022-10-31T09:26:05;101565.47;;;20.40;100.00
37368;BME280;23240;43.210;27.910;2022-10-31T09:28:31;101564.63;;;20.39;100.00
37368;BME280;23240;43.210;27.910;2022-10-31T09:30:57;101559.69;;;20.43;100.00
37368;BME280;23240;43.210;27.910;2022-10-31T09:33:23;101557.00;;;20.51;100.00
37368;BME280;23240;43.210;27.910;2022-10-31T09:35:49;101558.72;;;20.60;100.00
37368;BME280;23240;43.210;27.910;2022-10-31T09:38:19;101562.78;;;20.56;100.00
37368;BME280;23240;43.210;27.910;2022-10-31T09:43:46;101552.75;;;20.48;100.00
37368;BME280;23240;43.210;27.910;2022-10-31T09:46:36;101550.69;;;20.42;100.00
37368;BME280;23240;43.210;27.910;2022-10-31T09:52:15;101544.59;;;20.65;100.00
37368;BME280;23240;43.210;27.910;2022-10-31T09:57:29;101553.44;;;20.75;100.00
37368;BME280;23240;43.210;27.910;2022-10-31T09:59:57;101548.16;;;20.65;100.00
37368;BME280;23240;43.210;27.910;2022-10-31T10:02:30;101549.31;;;20.46;100.00
37368;BME280;23240;43.210;27.910;2022-10-31T10:05:00;101534.38;;;20.26;100.00
37368;BME280;23240;43.210;27.910;2022-10-31T10:10:07;101535.88;;;20.28;100.00
37368;BME280;23240;43.210;27.910;2022-10-31T10:32:40;101530.44;;;20.77;100.00
37368;BME280;23240;43.210;27.910;2022-10-31T10:35:34;101528.25;;;20.65;97.74
37368;BME280;23240;43.210;27.910;2022-10-31T10:38:17;101532.13;;;20.29;100.00
37368;BME280;23240;43.210;27.910;2022-10-31T10:40:44;101527.69;;;20.04;100.00
37368;BME280;23240;43.210;27.910;2022-10-31T10:46:17;101524.63;;;19.91;100.00
37368;BME280;23240;43.210;27.910;2022-10-31T10:59:47;101507.81;;;20.44;100.00
37368;BME280;23240;43.210;27.910;2022-10-31T11:04:58;101511.88;;;20.81;98.23
37368;BME280;23240;43.210;27.910;2022-10-31T11:07:25;101501.56;;;21.16;93.94
37368;BME280;23240;43.210;27.910;2022-10-31T11:10:03;101503.41;;;21.23;91.07
37368;BME280;23240;43.210;27.910;2022-10-31T11:12:33;101509.41;;;21.19;89.31
37368;BME280;23240;43.210;27.910;2022-10-31T11:15:02;101505.13;;;21.16;88.15
37368;BME280;23240;43.210;27.910;2022-10-31T11:17:33;101505.34;;;21.07;90.48
37368;BME280;23240;43.210;27.910;2022-10-31T11:23:01;101500.78;;;20.99;90.71
37368;BME280;23240;43.210;27.910;2022-10-31T11:25:27;101501.97;;;20.88;90.72
37368;BME280;23240;43.210;27.910;2022-10-31T11:28:09;101498.97;;;20.75;92.49
37368;BME280;23240;43.210;27.910;2022-10-31T11:30:46;101493.19;;;20.70;94.09
37368;BME280;23240;43.210;27.910;2022-10-31T11:33:22;101504.09;;;20.62;95.60
37368;BME280;23240;43.210;27.910;2022-10-31T11:35:50;101497.28;;;20.58;96.84
37368;BME280;23240;43.210;27.910;2022-10-31T11:38:19;101507.84;;;20.61;96.73
37368;BME280;23240;43.210;27.910;2022-10-31T11:40:58;101502.03;;;20.64;96.26
37368;BME280;23240;43.210;27.910;2022-10-31T11:43:25;101489.78;;;20.68;95.62
37368;BME280;23240;43.210;27.910;2022-10-31T11:45:51;101496.25;;;20.75;95.39
37368;BME280;23240;43.210;27.910;2022-10-31T11:48:22;101496.56;;;20.80;94.09
37368;BME280;23240;43.210;27.910;2022-10-31T11:50:55;101490.41;;;20.94;92.23
37368;BME280;23240;43.210;27.910;2022-10-31T11:53:29;101486.97;;;21.00;91.80
37368;BME280;23240;43.210;27.910;2022-10-31T11:56:16;101486.31;;;20.98;89.83
37368;BME280;23240;43.210;27.910;2022-10-31T11:58:42;101490.94;;;20.82;90.70
37368;BME280;23240;43.210;27.910;2022-10-31T12:01:28;101494.25;;;20.52;92.16
37368;BME280;23240;43.210;27.910;2022-10-31T12:04:02;101488.44;;;20.23;95.16
37368;BME280;23240;43.210;27.910;2022-10-31T12:06:35;101484.19;;;20.20;97.30
37368;BME280;23240;43.210;27.910;2022-10-31T12:09:02;101483.16;;;20.29;97.16
37368;BME280;23240;43.210;27.910;2022-10-31T12:17:22;101478.22;;;20.66;96.25
37368;BME280;23240;43.210;27.910;2022-10-31T12:20:12;101478.19;;;20.82;95.24
37368;BME280;23240;43.210;27.910;2022-10-31T12:55:48;101488.16;;;21.06;87.00
37368;BME280;23240;43.210;27.910;2022-10-31T13:01:14;101486.97;;;21.09;86.13
37368;BME280;23240;43.210;27.910;2022-10-31T13:03:51;101489.38;;;20.95;94.49
37368;BME280;23240;43.210;27.910;2022-10-31T13:06:21;101494.84;;;20.79;97.41
37368;BME280;23240;43.210;27.910;2022-10-31T13:08:51;101486.34;;;20.74;96.93
37368;BME280;23240;43.210;27.910;2022-10-31T13:11:22;101487.72;;;20.78;97.58
37368;BME280;23240;43.210;27.910;2022-10-31T13:16:22;101492.34;;;20.45;100.00
37368;BME280;23240;43.210;27.910;2022-10-31T13:19:04;101484.34;;;20.35;100.00
37368;BME280;23240;43.210;27.910;2022-10-31T13:24:23;101481.66;;;20.19;100.00
37368;BME280;23240;43.210;27.910;2022-10-31T13:26:54;101481.47;;;20.12;99.73
37368;BME280;23240;43.210;27.910;2022-10-31T13:29:29;101478.91;;;20.11;100.00
37368;BME280;23240;43.210;27.910;2022-10-31T13:31:59;101477.03;;;20.11;98.87
37368;BME280;23240;43.210;27.910;2022-10-31T13:44:53;101493.16;;;19.80;100.00
37368;BME280;23240;43.210;27.910;2022-10-31T13:47:28;101498.78;;;19.79;100.00
37368;BME280;23240;43.210;27.910;2022-10-31T13:50:14;101497.25;;;19.68;100.00
37368;BME280;23240;43.210;27.910;2022-10-31T13:52:43;101498.41;;;19.65;100.00
37368;BME280;23240;43.210;27.910;2022-10-31T13:55:40;101496.53;;;19.66;100.00
37368;BME280;23240;43.210;27.910;2022-10-31T13:58:25;101495.00;;;19.63;100.00
37368;BME280;23240;43.210;27.910;2022-10-31T14:03:37;101493.75;;;19.58;100.00
37368;BME280;23240;43.210;27.910;2022-10-31T14:06:05;101499.03;;;19.59;100.00
37368;BME280;23240;43.210;27.910;2022-10-31T14:08:34;101496.84;;;19.63;100.00
37368;BME280;23240;43.210;27.910;2022-10-31T14:11:01;101492.56;;;19.52;100.00
37368;BME280;23240;43.210;27.910;2022-10-31T14:13:31;101501.91;;;19.49;100.00
37368;BME280;23240;43.210;27.910;2022-10-31T14:16:04;101504.22;;;19.36;100.00
37368;BME280;23240;43.210;27.910;2022-10-31T14:20:57;101501.69;;;19.35;100.00
37368;BME280;23240;43.210;27.910;2022-10-31T14:23:36;101501.81;;;19.33;100.00
37368;BME280;23240;43.210;27.910;2022-10-31T14:26:35;101510.31;;;19.30;100.00
37368;BME280;23240;43.210;27.910;2022-10-31T14:29:21;101511.97;;;19.23;100.00
37368;BME280;23240;43.210;27.910;2022-10-31T14:37:25;101518.19;;;19.07;100.00
37368;BME280;23240;43.210;27.910;2022-10-31T14:45:14;101519.94;;;18.90;100.00
37368;BME280;23240;43.210;27.910;2022-10-31T14:48:23;101519.75;;;18.84;100.00
37368;BME280;23240;43.210;27.910;2022-10-31T14:50:52;101531.94;;;18.80;100.00
37368;BME280;23240;43.210;27.910;2022-10-31T14:53:22;101533.72;;;18.71;100.00
37368;BME280;23240;43.210;27.910;2022-10-31T14:55:51;101532.34;;;18.67;100.00
37368;BME280;23240;43.210;27.910;2022-10-31T14:58:22;101539.22;;;18.61;100.00
37368;BME280;23240;43.210;27.910;2022-10-31T15:00:52;101541.03;;;18.53;100.00
37368;BME280;23240;43.210;27.910;2022-10-31T15:05:53;101551.44;;;18.39;100.00
37368;BME280;23240;43.210;27.910;2022-10-31T15:08:34;101550.34;;;18.32;100.00
37368;BME280;23240;43.210;27.910;2022-10-31T15:11:12;101552.69;;;18.27;100.00
37368;BME280;23240;43.210;27.910;2022-10-31T15:14:05;101555.00;;;18.22;100.00
37368;BME280;23240;43.210;27.910;2022-10-31T15:16:34;101567.31;;;18.16;100.00
37368;BME280;23240;43.210;27.910;2022-10-31T15:19:05;101555.72;;;18.06;100.00
37368;BME280;23240;43.210;27.910;2022-10-31T15:21:33;101559.72;;;18.02;100.00
37368;BME280;23240;43.210;27.910;2022-10-31T15:24:01;101566.31;;;18.00;100.00
37368;BME280;23240;43.210;27.910;2022-10-31T15:26:38;101565.09;;;17.94;100.00
37368;BME280;23240;43.210;27.910;2022-10-31T15:29:16;101555.16;;;17.85;100.00
37368;BME280;23240;43.210;27.910;2022-10-31T15:31:58;101563.03;;;17.78;100.00